Time;durP1;ratioP1;P1;durP2;ratioP2;P2;SDS_P1;SDS_P2;PMS_P1;PMS_P2;Temp;Humidity;BMP_temperature;BMP_pressure;BME280_temperature;BME280_humidity;BME280_pressure;Samples;Min_cycle;Max_cycle;Signal;HPM_P1;HPM_P2
2022/12/02 00:00:38;;;;;;;13.73;9.35;;;17.50;49.90;;;;;;5016875;28;20227;-72
2022/12/02 00:03:09;;;;;;;12.00;9.75;;;17.50;49.70;;;;;;5016889;28;20694;-72
2022/12/02 00:05:39;;;;;;;10.90;8.55;;;17.50;49.90;;;;;;5018339;28;20177;-72
2022/12/02 00:08:13;;;;;;;12.30;8.65;;;17.50;49.90;;;;;;5017150;28;20551;-72
2022/12/02 00:10:40;;;;;;;12.00;9.65;;;17.40;50.00;;;;;;5016729;28;20299;-72
2022/12/02 00:13:12;;;;;;;13.13;9.75;;;17.40;50.00;;;;;;5017757;28;20189;-72
2022/12/02 00:15:41;;;;;;;13.38;9.98;;;17.40;50.20;;;;;;5017421;28;20296;-72
2022/12/02 00:18:11;;;;;;;13.02;9.55;;;17.40;50.00;;;;;;5016287;28;20267;-72
2022/12/02 00:20:38;;;;;;;13.32;9.15;;;17.40;50.10;;;;;;5016935;28;20207;-72
2022/12/02 00:23:06;;;;;;;12.90;9.60;;;17.30;50.10;;;;;;5016496;28;20213;-72
2022/12/02 00:25:33;;;;;;;12.00;10.07;;;17.30;50.20;;;;;;5016320;28;20655;-72
2022/12/02 00:28:01;;;;;;;13.07;9.30;;;17.30;50.10;;;;;;5016419;28;20659;-72
2022/12/02 00:30:27;;;;;;;12.30;9.00;;;17.30;50.10;;;;;;5020341;28;20226;-72
2022/12/02 00:32:55;;;;;;;11.70;8.75;;;17.30;50.30;;;;;;5017386;28;20664;-72
2022/12/02 00:35:24;;;;;;;13.07;9.48;;;17.30;50.20;;;;;;5016581;28;20207;-72
2022/12/02 00:37:51;;;;;;;11.38;9.00;;;17.20;50.10;;;;;;5016690;28;20558;-72
2022/12/02 00:40:18;;;;;;;12.55;9.65;;;17.30;50.10;;;;;;5015957;28;20235;-72
2022/12/02 00:42:45;;;;;;;11.30;8.52;;;17.30;50.20;;;;;;5015282;28;20606;-72
2022/12/02 00:47:57;;;;;;;11.77;9.07;;;17.30;50.20;;;;;;5016747;28;20183;-72
2022/12/02 00:50:25;;;;;;;11.48;8.85;;;17.20;50.20;;;;;;5016097;28;20291;-72
2022/12/02 00:52:53;;;;;;;12.20;8.98;;;17.20;50.20;;;;;;5015837;28;20660;-72
2022/12/02 00:55:22;;;;;;;13.20;9.77;;;17.20;50.20;;;;;;5015326;28;20201;-72
2022/12/02 00:57:49;;;;;;;10.13;8.90;;;17.20;50.10;;;;;;5016545;28;20254;-71
2022/12/02 01:00:17;;;;;;;11.85;9.48;;;17.20;50.00;;;;;;5014820;28;20311;-72
2022/12/02 01:02:44;;;;;;;13.80;9.73;;;17.20;50.10;;;;;;5015963;28;20220;-72
2022/12/02 01:05:11;;;;;;;12.70;9.20;;;17.20;50.00;;;;;;5015164;28;20247;-72
2022/12/02 01:07:39;;;;;;;11.52;8.68;;;17.20;50.10;;;;;;5015374;28;20300;-72
2022/12/02 01:10:07;;;;;;;12.10;9.18;;;17.10;50.00;;;;;;4999089;28;20220;-72
2022/12/02 01:12:34;;;;;;;12.82;9.00;;;17.10;50.00;;;;;;5015460;28;20213;-72
2022/12/02 01:15:01;;;;;;;11.57;9.55;;;17.10;50.10;;;;;;5015162;28;20267;-72
2022/12/02 01:17:29;;;;;;;10.85;8.88;;;17.10;50.00;;;;;;5015168;28;20204;-72
2022/12/02 01:19:56;;;;;;;11.73;9.65;;;17.10;50.10;;;;;;5015878;28;20695;-72
2022/12/02 01:22:23;;;;;;;11.35;8.90;;;17.10;50.10;;;;;;5016432;28;20224;-72
2022/12/02 01:24:52;;;;;;;12.10;9.20;;;17.10;50.80;;;;;;5016581;28;20208;-72
2022/12/02 01:27:20;;;;;;;12.77;9.07;;;17.10;50.10;;;;;;5016142;28;20197;-72
2022/12/02 01:29:47;;;;;;;12.65;9.65;;;17.10;50.10;;;;;;5017713;28;20215;-72
2022/12/02 01:32:15;;;;;;;10.25;9.10;;;17.10;50.20;;;;;;5017539;28;20193;-72
2022/12/02 01:34:45;;;;;;;11.65;9.32;;;17.00;50.20;;;;;;5000054;28;20291;-72
2022/12/02 01:37:12;;;;;;;11.90;9.20;;;17.00;50.20;;;;;;5016142;28;20204;-72
2022/12/02 01:39:40;;;;;;;9.73;8.70;;;17.00;50.20;;;;;;5015346;28;20220;-72
2022/12/02 01:42:09;;;;;;;10.60;8.55;;;17.00;50.20;;;;;;5014962;28;20209;-72
2022/12/02 01:44:36;;;;;;;10.48;8.80;;;17.00;50.30;;;;;;5015580;28;20224;-72
2022/12/02 01:47:04;;;;;;;11.68;9.23;;;17.00;50.90;;;;;;5015279;28;20205;-72
2022/12/02 01:49:31;;;;;;;10.70;8.57;;;17.00;50.40;;;;;;5014957;28;20212;-72
2022/12/02 01:51:58;;;;;;;10.55;8.75;;;16.90;50.20;;;;;;5015432;28;20196;-72
2022/12/02 01:54:25;;;;;;;11.88;9.27;;;16.90;50.30;;;;;;5016547;28;20204;-72
2022/12/02 01:56:52;;;;;;;9.73;8.32;;;16.90;50.40;;;;;;5016316;28;20227;-72
2022/12/02 01:59:21;;;;;;;10.43;8.40;;;16.90;51.00;;;;;;5016356;28;20300;-72
2022/12/02 02:01:48;;;;;;;10.10;8.90;;;16.90;50.40;;;;;;5017495;28;20224;-72
2022/12/02 02:04:17;;;;;;;11.05;8.35;;;16.90;50.40;;;;;;5017754;28;20200;-72
2022/12/02 02:06:45;;;;;;;10.68;8.40;;;16.90;50.40;;;;;;5017864;28;20208;-72
2022/12/02 02:09:12;;;;;;;10.75;8.82;;;16.90;50.40;;;;;;5018897;28;20660;-72
2022/12/02 02:11:40;;;;;;;10.73;8.57;;;16.90;50.40;;;;;;5017889;28;20215;-72
2022/12/02 02:14:08;;;;;;;10.52;8.48;;;16.90;50.40;;;;;;5016874;28;20212;-72
2022/12/02 02:16:37;;;;;;;11.45;8.90;;;16.90;50.40;;;;;;5028049;28;20244;-72
2022/12/02 02:19:05;;;;;;;10.18;8.68;;;16.80;50.40;;;;;;5020779;28;20208;-72
2022/12/02 02:21:34;;;;;;;10.40;8.48;;;16.90;50.50;;;;;;5015175;28;20659;-72
2022/12/02 02:24:02;;;;;;;9.80;8.80;;;16.80;50.50;;;;;;5014845;28;20573;-72
2022/12/02 02:26:31;;;;;;;11.15;8.35;;;16.80;50.50;;;;;;5014536;28;20298;-72
2022/12/02 02:28:59;;;;;;;12.02;8.38;;;16.80;50.50;;;;;;4997992;28;20217;-72
2022/12/02 02:31:27;;;;;;;8.98;7.75;;;16.80;50.60;;;;;;5014925;28;20201;-72
2022/12/02 02:33:54;;;;;;;10.23;8.70;;;16.80;50.60;;;;;;5016036;28;20287;-72
2022/12/02 02:36:22;;;;;;;11.00;8.52;;;16.80;50.60;;;;;;5015920;28;20196;-72
2022/12/02 02:38:49;;;;;;;9.98;8.25;;;16.80;50.60;;;;;;5015422;28;20221;-70
2022/12/02 02:41:18;;;;;;;10.43;8.23;;;16.80;50.60;;;;;;5014603;28;20208;-71
2022/12/02 02:43:45;;;;;;;11.05;8.35;;;16.80;50.60;;;;;;5014010;28;20228;-71
2022/12/02 02:46:12;;;;;;;10.40;8.73;;;16.80;50.60;;;;;;5014826;28;20197;-71
2022/12/02 02:48:41;;;;;;;11.68;8.55;;;16.80;50.60;;;;;;5014552;28;20697;-72
2022/12/02 02:51:08;;;;;;;9.05;7.70;;;16.80;50.60;;;;;;5017648;28;20249;-72
2022/12/02 02:53:36;;;;;;;10.75;8.95;;;16.80;50.60;;;;;;5017282;28;20710;-72
2022/12/02 02:56:05;;;;;;;11.40;8.68;;;16.80;50.60;;;;;;5017488;28;20668;-72
2022/12/02 02:58:35;;;;;;;11.65;8.38;;;16.80;50.60;;;;;;5017356;28;20220;-72
2022/12/02 03:01:04;;;;;;;9.55;8.20;;;16.70;50.60;;;;;;5017086;28;20207;-72
2022/12/02 03:03:33;;;;;;;10.20;8.43;;;16.70;50.50;;;;;;5017277;28;20263;-72
2022/12/02 03:06:01;;;;;;;9.40;8.27;;;16.70;50.50;;;;;;5016893;28;20288;-72
2022/12/02 03:08:30;;;;;;;10.13;7.88;;;16.70;50.60;;;;;;5017799;28;20201;-72
2022/12/02 03:11:00;;;;;;;9.27;8.18;;;16.70;50.60;;;;;;5017831;28;20641;-72
2022/12/02 03:13:27;;;;;;;10.75;8.27;;;16.70;50.60;;;;;;5017200;28;20203;-72
2022/12/02 03:15:57;;;;;;;8.85;7.68;;;16.70;51.20;;;;;;5017217;28;20621;-72
2022/12/02 03:18:24;;;;;;;10.68;8.10;;;16.70;50.70;;;;;;5017566;28;20296;-72
2022/12/02 03:20:52;;;;;;;10.73;8.57;;;16.70;50.60;;;;;;5017059;28;20659;-72
2022/12/02 03:23:20;;;;;;;9.30;8.07;;;16.70;50.60;;;;;;5017214;28;20220;-72
2022/12/02 03:25:47;;;;;;;9.68;8.60;;;16.70;50.60;;;;;;5016639;28;20201;-72
2022/12/02 03:28:14;;;;;;;10.02;8.25;;;16.70;50.70;;;;;;5016293;28;20652;-72
2022/12/02 03:30:41;;;;;;;9.32;8.18;;;16.70;50.60;;;;;;5016949;28;20291;-72
2022/12/02 03:33:10;;;;;;;9.50;8.38;;;16.70;50.60;;;;;;5018303;28;20289;-72
2022/12/02 03:35:37;;;;;;;9.65;8.20;;;16.60;50.60;;;;;;5018186;28;20200;-72
2022/12/02 03:38:04;;;;;;;9.88;8.65;;;16.60;50.60;;;;;;5018458;28;20204;-72
2022/12/02 03:40:31;;;;;;;8.80;7.88;;;16.70;50.70;;;;;;5018264;28;20239;-72
2022/12/02 03:42:59;;;;;;;9.73;7.75;;;16.60;50.60;;;;;;5018380;28;20216;-72
2022/12/02 03:45:26;;;;;;;9.32;7.80;;;16.60;50.70;;;;;;5017851;28;20216;-72
2022/12/02 03:47:53;;;;;;;8.40;7.47;;;16.60;50.70;;;;;;5018691;28;20201;-72
2022/12/02 03:50:22;;;;;;;10.02;8.48;;;16.60;50.60;;;;;;5019992;28;20234;-72
2022/12/02 03:52:49;;;;;;;10.40;7.97;;;16.60;50.80;;;;;;5003218;28;20235;-72
2022/12/02 03:55:16;;;;;;;9.43;8.00;;;16.50;50.60;;;;;;5003613;28;20207;-72
2022/12/02 03:57:43;;;;;;;8.93;8.02;;;16.60;50.70;;;;;;5019731;28;20635;-72
2022/12/02 04:00:12;;;;;;;9.10;8.10;;;16.60;50.80;;;;;;5000387;28;20216;-72
2022/12/02 04:02:39;;;;;;;8.75;7.80;;;16.60;50.80;;;;;;5016725;28;20204;-72
2022/12/02 04:05:07;;;;;;;10.02;8.10;;;16.60;50.80;;;;;;5016880;28;20219;-72
2022/12/02 04:07:35;;;;;;;11.23;8.43;;;16.60;50.80;;;;;;5015666;28;20265;-72
2022/12/02 04:10:02;;;;;;;9.80;7.60;;;16.60;50.80;;;;;;5015996;28;20227;-72
2022/12/02 04:12:30;;;;;;;9.38;7.72;;;16.60;50.80;;;;;;5015333;28;20348;-72
2022/12/02 04:14:58;;;;;;;9.38;7.68;;;16.60;50.80;;;;;;5015600;28;20651;-72
2022/12/02 04:17:24;;;;;;;9.88;8.25;;;16.60;51.10;;;;;;5015948;28;20216;-72
2022/12/02 04:19:51;;;;;;;9.75;8.32;;;16.50;51.90;;;;;;5015948;28;20263;-72
2022/12/02 04:22:19;;;;;;;9.20;8.15;;;16.50;51.30;;;;;;5015269;28;20294;-72
2022/12/02 04:24:47;;;;;;;9.48;7.60;;;16.60;51.50;;;;;;5016257;28;20283;-72
2022/12/02 04:27:15;;;;;;;8.70;7.78;;;16.60;51.40;;;;;;5016829;28;20219;-72
2022/12/02 04:29:42;;;;;;;9.00;7.85;;;16.60;51.30;;;;;;5018134;28;20566;-72
2022/12/02 04:32:09;;;;;;;8.80;7.55;;;16.60;51.20;;;;;;5016037;28;20200;-72
2022/12/02 04:34:36;;;;;;;8.07;7.13;;;16.70;51.20;;;;;;5016385;28;20290;-72
2022/12/02 04:37:03;;;;;;;8.52;7.50;;;16.70;51.00;;;;;;5016778;28;20222;-71
2022/12/02 04:39:31;;;;;;;9.40;7.45;;;16.80;50.90;;;;;;5018800;28;20224;-72
2022/12/02 04:41:59;;;;;;;9.07;7.85;;;16.80;50.80;;;;;;5016032;28;20577;-72
2022/12/02 04:44:26;;;;;;;9.15;8.10;;;16.80;50.60;;;;;;5015722;28;20221;-72
2022/12/02 04:46:54;;;;;;;10.02;7.78;;;16.90;50.70;;;;;;5016905;28;20593;-72
2022/12/02 04:49:21;;;;;;;10.05;7.85;;;16.90;50.60;;;;;;5017439;28;20232;-72
2022/12/02 04:51:49;;;;;;;8.75;7.85;;;16.90;50.50;;;;;;5017013;28;20228;-72
2022/12/02 04:54:16;;;;;;;8.65;7.05;;;16.90;50.50;;;;;;5017135;28;20201;-72
2022/12/02 04:56:43;;;;;;;10.15;7.90;;;16.90;50.40;;;;;;5016730;28;20203;-72
2022/12/02 04:59:11;;;;;;;9.43;8.10;;;17.00;50.40;;;;;;5016158;28;20220;-72
2022/12/02 05:01:38;;;;;;;9.50;7.68;;;17.00;50.40;;;;;;5016811;28;20201;-72
2022/12/02 05:04:05;;;;;;;8.65;7.68;;;17.00;50.30;;;;;;5015586;28;20217;-72
2022/12/02 05:06:32;;;;;;;8.60;7.70;;;17.00;50.10;;;;;;5015091;28;20259;-72
2022/12/02 05:08:59;;;;;;;8.10;7.25;;;17.00;50.30;;;;;;5016155;28;20217;-72
2022/12/02 05:11:26;;;;;;;8.27;7.38;;;17.00;50.20;;;;;;5015439;28;20203;-72
2022/12/02 05:13:54;;;;;;;9.07;7.68;;;17.00;50.20;;;;;;5015311;28;20203;-72
2022/12/02 05:16:22;;;;;;;8.07;7.28;;;17.00;50.20;;;;;;5015103;28;20197;-72
2022/12/02 05:18:50;;;;;;;8.60;7.70;;;17.00;50.00;;;;;;5014393;28;20703;-72
2022/12/02 05:21:17;;;;;;;8.57;7.53;;;17.00;49.90;;;;;;5014144;28;20200;-72
2022/12/02 05:23:44;;;;;;;9.40;8.15;;;17.00;49.90;;;;;;5014275;28;20212;-72
2022/12/02 05:26:13;;;;;;;8.88;7.97;;;17.00;49.90;;;;;;5015043;28;20192;-72
2022/12/02 05:28:39;;;;;;;8.18;7.35;;;17.00;49.80;;;;;;5014974;28;20231;-72
2022/12/02 05:31:07;;;;;;;8.27;7.47;;;17.00;49.70;;;;;;5013807;28;20197;-72
2022/12/02 05:33:36;;;;;;;8.40;7.25;;;17.00;50.30;;;;;;5013486;28;20197;-72
2022/12/02 05:36:03;;;;;;;9.00;8.10;;;17.10;49.70;;;;;;5012928;28;20299;-69
2022/12/02 05:38:30;;;;;;;8.60;7.70;;;17.10;49.90;;;;;;5012824;28;20550;-69
2022/12/02 05:40:57;;;;;;;9.27;7.88;;;17.10;49.90;;;;;;5013207;28;20288;-68
2022/12/02 05:43:25;;;;;;;8.90;8.00;;;17.10;50.20;;;;;;5013118;28;20746;-68
2022/12/02 05:45:52;;;;;;;9.95;8.25;;;17.20;50.00;;;;;;5012994;28;20193;-68
2022/12/02 05:48:20;;;;;;;8.85;7.85;;;17.20;51.00;;;;;;5013797;28;20211;-68
2022/12/02 05:50:48;;;;;;;9.50;7.57;;;17.20;50.20;;;;;;5012479;28;20655;-68
2022/12/02 05:53:25;;;;;;;9.95;7.85;;;17.20;49.90;;;;;;5012479;28;20691;-68
2022/12/02 05:55:52;;;;;;;7.80;7.03;;;17.20;50.20;;;;;;5012610;28;20296;-68
2022/12/02 05:58:19;;;;;;;8.48;7.40;;;17.20;50.20;;;;;;4996463;28;20193;-68
2022/12/02 06:00:49;;;;;;;8.65;7.75;;;17.30;50.20;;;;;;5013053;28;20201;-68
2022/12/02 06:03:18;;;;;;;9.13;7.75;;;17.30;50.20;;;;;;5012387;28;20266;-68
2022/12/02 06:05:45;;;;;;;8.68;7.78;;;17.30;50.20;;;;;;5012462;28;20695;-68
2022/12/02 06:08:18;;;;;;;9.40;8.23;;;17.30;50.00;;;;;;5012337;28;20283;-70
2022/12/02 06:10:48;;;;;;;8.18;7.32;;;17.40;50.00;;;;;;5013763;28;20249;-71
2022/12/02 06:13:17;;;;;;;8.38;7.35;;;17.40;49.90;;;;;;5012510;28;20263;-71
2022/12/02 06:15:44;;;;;;;7.53;6.72;;;17.40;49.80;;;;;;5012862;28;20197;-71
2022/12/02 06:18:14;;;;;;;8.32;7.38;;;17.40;49.80;;;;;;5012110;28;20251;-71
2022/12/02 06:20:42;;;;;;;8.75;7.70;;;17.40;49.70;;;;;;5013806;28;20647;-70
2022/12/02 06:23:12;;;;;;;9.82;7.57;;;17.40;49.70;;;;;;5012012;28;20213;-71
2022/12/02 06:25:40;;;;;;;8.38;7.35;;;17.40;49.70;;;;;;5015891;28;20188;-71
2022/12/02 06:28:14;;;;;;;8.02;7.22;;;17.40;49.70;;;;;;5015871;28;20220;-70
2022/12/02 06:30:41;;;;;;;7.68;6.85;;;17.40;49.70;;;;;;5016645;28;20267;-70
2022/12/02 06:33:14;;;;;;;8.48;7.43;;;17.40;49.50;;;;;;4999721;28;20205;-71
2022/12/02 06:35:41;;;;;;;7.88;7.10;;;17.40;49.40;;;;;;5016122;28;20207;-71
2022/12/02 06:38:13;;;;;;;8.45;7.43;;;17.50;49.20;;;;;;5015973;28;20196;-72
2022/12/02 06:40:41;;;;;;;7.90;6.70;;;17.50;49.20;;;;;;5016371;28;20217;-71
2022/12/02 06:43:12;;;;;;;8.30;7.25;;;17.50;49.10;;;;;;5016400;28;20754;-70
2022/12/02 06:45:39;;;;;;;7.63;6.82;;;17.50;48.90;;;;;;5015603;28;20283;-70
2022/12/02 06:48:17;;;;;;;9.73;7.22;;;17.50;48.80;;;;;;5015731;28;20286;-70
2022/12/02 06:50:45;;;;;;;8.23;7.18;;;17.60;48.80;;;;;;5016899;28;20234;-70
2022/12/02 06:53:39;;;;;;;9.02;7.95;;;17.60;48.70;;;;;;5015404;28;20197;-70
2022/12/02 06:56:14;;;;;;;8.50;7.50;;;17.60;48.80;;;;;;5010133;28;20193;-70
2022/12/02 06:58:42;;;;;;;8.45;7.05;;;17.60;48.60;;;;;;5016857;28;20314;-70
2022/12/02 07:01:31;;;;;;;8.68;7.40;;;17.60;48.60;;;;;;5015518;28;20682;-70
2022/12/02 07:04:09;;;;;;;8.18;7.30;;;17.60;48.70;;;;;;5015701;28;20205;-70
2022/12/02 07:06:37;;;;;;;8.45;7.55;;;17.60;48.40;;;;;;5015232;28;20197;-70
2022/12/02 07:09:05;;;;;;;9.07;7.45;;;17.70;48.50;;;;;;5015744;28;20583;-70
2022/12/02 07:11:52;;;;;;;8.85;7.95;;;17.70;48.40;;;;;;5016570;28;20192;-70
2022/12/02 07:14:33;;;;;;;8.55;7.30;;;17.70;48.40;;;;;;5015696;28;20185;-70
2022/12/02 07:17:01;;;;;;;8.40;7.50;;;17.70;48.40;;;;;;5015432;28;20558;-70
2022/12/02 07:19:36;;;;;;;9.57;8.00;;;17.70;48.40;;;;;;5015309;28;20217;-70
2022/12/02 07:22:04;;;;;;;8.90;7.28;;;17.70;48.40;;;;;;5015355;28;20635;-70
2022/12/02 07:24:31;;;;;;;9.23;7.80;;;17.80;48.30;;;;;;5015365;28;20213;-70
2022/12/02 07:27:00;;;;;;;8.70;7.75;;;17.80;48.20;;;;;;5015628;28;20285;-70
2022/12/02 07:29:29;;;;;;;8.93;7.32;;;17.70;48.10;;;;;;5015452;28;20229;-70
2022/12/02 07:31:56;;;;;;;7.78;7.00;;;17.80;48.00;;;;;;5017312;28;20188;-70
2022/12/02 07:34:23;;;;;;;9.80;7.90;;;17.80;48.00;;;;;;5015569;28;20207;-70
2022/12/02 07:36:50;;;;;;;9.23;7.38;;;17.80;48.00;;;;;;5015263;28;20652;-70
2022/12/02 07:39:18;;;;;;;9.25;7.55;;;17.80;47.90;;;;;;5026953;28;20248;-70
2022/12/02 07:41:45;;;;;;;7.97;7.18;;;17.80;47.80;;;;;;5034104;28;20196;-70
2022/12/02 07:44:13;;;;;;;9.23;7.65;;;17.90;47.90;;;;;;5016691;28;20225;-70
2022/12/02 07:46:41;;;;;;;8.70;7.65;;;17.90;47.80;;;;;;5017725;28;20204;-70
2022/12/02 07:49:09;;;;;;;8.38;7.32;;;17.90;47.80;;;;;;5015612;28;20311;-70
2022/12/02 07:51:36;;;;;;;8.95;7.22;;;17.90;47.80;;;;;;5015515;28;20667;-70
2022/12/02 07:54:04;;;;;;;8.13;7.15;;;17.90;47.80;;;;;;5014979;28;20311;-70
2022/12/02 07:56:31;;;;;;;8.90;7.95;;;17.80;47.70;;;;;;5014939;28;20220;-70
2022/12/02 07:58:59;;;;;;;9.00;7.60;;;17.90;47.80;;;;;;5016068;28;20213;-70
2022/12/02 08:01:28;;;;;;;7.97;7.18;;;17.90;47.80;;;;;;5014814;28;20207;-70
2022/12/02 08:03:54;;;;;;;9.82;8.55;;;17.90;47.70;;;;;;5014462;28;20221;-70
2022/12/02 08:06:22;;;;;;;8.95;7.57;;;17.90;47.60;;;;;;5014233;28;20702;-70
2022/12/02 08:08:49;;;;;;;9.57;7.75;;;17.90;47.60;;;;;;5015560;28;20216;-70
2022/12/02 08:11:16;;;;;;;10.65;7.82;;;17.90;47.70;;;;;;5014141;28;20211;-70
2022/12/02 08:13:43;;;;;;;10.02;8.30;;;17.90;47.60;;;;;;5014143;28;20270;-70
2022/12/02 08:16:10;;;;;;;10.15;7.78;;;17.90;47.50;;;;;;5015434;28;20203;-70
2022/12/02 08:18:38;;;;;;;8.38;7.32;;;17.90;47.60;;;;;;5014022;28;20714;-70
2022/12/02 08:21:06;;;;;;;8.80;7.90;;;17.90;47.70;;;;;;5014148;28;20231;-70
2022/12/02 08:23:33;;;;;;;9.13;7.88;;;17.90;47.70;;;;;;5013860;28;20250;-70
2022/12/02 08:26:00;;;;;;;9.10;7.78;;;17.90;47.60;;;;;;5014267;28;20208;-70
2022/12/02 08:28:27;;;;;;;8.73;7.80;;;18.00;47.70;;;;;;5013460;28;20201;-70
2022/12/02 08:30:54;;;;;;;9.35;8.38;;;17.90;47.60;;;;;;5013684;28;20258;-70
2022/12/02 08:33:21;;;;;;;8.98;7.75;;;18.00;47.70;;;;;;5013750;28;20292;-70
2022/12/02 08:35:49;;;;;;;9.77;8.40;;;18.00;47.60;;;;;;5013504;28;20201;-70
2022/12/02 08:38:17;;;;;;;8.55;7.53;;;18.00;47.60;;;;;;5013961;28;20670;-70
2022/12/02 08:40:44;;;;;;;9.20;7.97;;;18.00;47.60;;;;;;5013476;28;20196;-70
2022/12/02 08:43:13;;;;;;;10.82;8.13;;;17.90;47.60;;;;;;5013651;28;20197;-70
2022/12/02 08:45:40;;;;;;;9.93;8.25;;;17.90;47.50;;;;;;5013421;28;20220;-70
2022/12/02 08:48:08;;;;;;;9.55;7.97;;;17.90;47.50;;;;;;5013561;28;20215;-70
2022/12/02 08:50:35;;;;;;;9.60;7.82;;;18.00;47.60;;;;;;5013665;28;20196;-70
2022/12/02 08:53:03;;;;;;;9.07;8.18;;;18.00;47.60;;;;;;5013847;28;20292;-70
2022/12/02 08:55:30;;;;;;;8.82;7.80;;;18.00;47.60;;;;;;5014593;28;20555;-70
2022/12/02 08:57:57;;;;;;;9.65;8.65;;;18.00;47.50;;;;;;5014880;28;20272;-70
2022/12/02 09:00:24;;;;;;;8.45;7.55;;;18.00;48.10;;;;;;5013652;28;20286;-70
2022/12/02 09:02:52;;;;;;;9.13;7.57;;;18.10;47.50;;;;;;4997768;28;20574;-70
2022/12/02 09:05:19;;;;;;;9.00;7.43;;;18.10;47.60;;;;;;5013601;28;20702;-70
2022/12/02 09:07:46;;;;;;;9.38;7.72;;;18.00;47.40;;;;;;5013795;28;20216;-70
2022/12/02 09:10:15;;;;;;;8.70;7.65;;;18.00;47.50;;;;;;5014663;28;20223;-70
2022/12/02 09:12:42;;;;;;;9.35;7.97;;;18.10;47.40;;;;;;5013480;28;20201;-70
2022/12/02 09:15:10;;;;;;;8.63;7.32;;;18.10;47.40;;;;;;5014317;28;20270;-70
2022/12/02 09:17:37;;;;;;;9.18;7.60;;;18.10;47.30;;;;;;5012990;28;20200;-70
2022/12/02 09:20:06;;;;;;;8.05;7.25;;;18.10;47.50;;;;;;5013463;28;20229;-70
2022/12/02 09:22:33;;;;;;;8.55;7.38;;;18.10;47.50;;;;;;5012950;28;20664;-70
2022/12/02 09:25:00;;;;;;;8.55;7.45;;;18.00;47.40;;;;;;5013882;28;20493;-70
2022/12/02 09:27:29;;;;;;;8.38;7.38;;;18.00;47.30;;;;;;5014243;28;20307;-70
2022/12/02 09:29:56;;;;;;;8.05;7.22;;;18.10;47.40;;;;;;5013986;28;20205;-70
2022/12/02 09:32:23;;;;;;;9.05;7.80;;;18.10;47.30;;;;;;5013022;28;20201;-70
2022/12/02 09:34:50;;;;;;;9.68;8.13;;;18.10;47.30;;;;;;5012880;28;20192;-70
2022/12/02 09:37:17;;;;;;;8.35;7.53;;;18.10;47.20;;;;;;5012735;28;20208;-70
2022/12/02 09:39:44;;;;;;;8.48;7.43;;;18.10;47.20;;;;;;5012345;28;20230;-70
2022/12/02 09:42:12;;;;;;;7.97;6.82;;;18.10;47.30;;;;;;5013141;28;20201;-70
2022/12/02 09:44:41;;;;;;;7.95;7.15;;;18.10;47.30;;;;;;5012596;28;20315;-70
2022/12/02 09:47:08;;;;;;;8.45;7.00;;;18.10;47.20;;;;;;5012585;28;20197;-70
2022/12/02 09:49:35;;;;;;;8.27;7.38;;;18.10;47.20;;;;;;5012900;28;20225;-70
2022/12/02 09:52:04;;;;;;;7.68;6.88;;;18.10;47.30;;;;;;5012843;28;20291;-70
2022/12/02 09:54:31;;;;;;;8.98;7.32;;;18.10;47.30;;;;;;5013105;28;20224;-70
2022/12/02 09:56:58;;;;;;;7.85;7.05;;;18.10;47.30;;;;;;5012645;28;20188;-70
2022/12/02 09:59:25;;;;;;;7.60;6.80;;;18.10;47.30;;;;;;5013176;28;20212;-70
2022/12/02 10:01:54;;;;;;;8.32;7.00;;;18.10;47.20;;;;;;5017917;28;20252;-70
2022/12/02 10:04:21;;;;;;;6.80;6.18;;;18.10;47.30;;;;;;5016529;28;20598;-70
2022/12/02 10:06:48;;;;;;;8.00;6.97;;;18.10;47.10;;;;;;5016994;28;20200;-70
2022/12/02 10:09:17;;;;;;;7.97;6.65;;;18.10;47.20;;;;;;5016890;28;20216;-70
2022/12/02 10:11:44;;;;;;;8.57;7.22;;;18.10;47.20;;;;;;5016822;28;20204;-70
2022/12/02 10:14:12;;;;;;;8.10;7.18;;;18.10;47.00;;;;;;5016990;28;20189;-70
2022/12/02 10:16:38;;;;;;;7.55;6.57;;;18.10;47.10;;;;;;5017670;28;20201;-70
2022/12/02 10:19:07;;;;;;;7.10;6.40;;;18.10;47.10;;;;;;5017658;28;20228;-70
2022/12/02 10:21:34;;;;;;;7.70;6.90;;;18.10;47.20;;;;;;5018103;28;20689;-70
2022/12/02 10:24:02;;;;;;;7.30;6.60;;;18.10;47.20;;;;;;5017122;28;20200;-70
2022/12/02 10:26:43;;;;;;;8.25;6.78;;;18.10;47.10;;;;;;5016835;28;20599;-70
2022/12/02 10:29:13;;;;;;;6.80;6.10;;;18.10;47.00;;;;;;5016402;28;20231;-70
2022/12/02 10:31:49;;;;;;;6.97;6.20;;;18.10;47.10;;;;;;5032772;23;20193;-65
2022/12/02 10:34:21;;;;;;;6.93;6.22;;;18.10;47.10;;;;;;5007949;23;20232;-72
2022/12/02 10:36:48;;;;;;;7.22;6.38;;;18.10;47.10;;;;;;5055510;23;20225;-65
2022/12/02 10:39:25;;;;;;;7.00;6.30;;;18.10;47.20;;;;;;5015915;28;20224;-65
2022/12/02 10:42:09;;;;;;;6.40;5.70;;;18.10;47.10;;;;;;5017768;28;20211;-65
2022/12/02 10:44:37;;;;;;;5.95;5.35;;;18.20;47.00;;;;;;5015627;28;20216;-65
2022/12/02 10:47:11;;;;;;;6.97;6.28;;;18.20;47.10;;;;;;5016367;28;20197;-65
2022/12/02 10:49:43;;;;;;;6.72;6.07;;;18.10;47.10;;;;;;5015630;28;20221;-65
2022/12/02 10:52:11;;;;;;;6.85;6.15;;;18.10;47.00;;;;;;5015748;28;20252;-65
2022/12/02 10:54:39;;;;;;;6.32;5.72;;;18.20;47.00;;;;;;5015446;28;20718;-65
2022/12/02 10:57:07;;;;;;;6.47;5.85;;;18.20;46.90;;;;;;5015519;28;20193;-65
2022/12/02 10:59:34;;;;;;;5.95;5.35;;;18.20;46.90;;;;;;5015260;28;20278;-65
2022/12/02 11:02:00;;;;;;;5.75;5.15;;;18.20;46.90;;;;;;5015247;28;20232;-65
2022/12/02 11:04:28;;;;;;;6.50;5.78;;;18.20;47.00;;;;;;5015173;28;20216;-65
2022/12/02 11:06:57;;;;;;;6.18;5.50;;;18.20;47.10;;;;;;4999079;28;20197;-65
2022/12/02 11:09:25;;;;;;;6.47;5.88;;;18.20;47.00;;;;;;5015107;28;20225;-65
2022/12/02 11:11:52;;;;;;;6.55;5.82;;;18.20;46.90;;;;;;5014795;28;20197;-65
2022/12/02 11:14:52;;;;;;;5.65;5.15;;;18.20;46.90;;;;;;5015125;28;20704;-65
2022/12/02 11:17:20;;;;;;;6.30;5.70;;;18.30;46.90;;;;;;5016239;28;20188;-65
2022/12/02 11:19:47;;;;;;;6.05;5.45;;;18.20;46.80;;;;;;5013610;28;20227;-65
2022/12/02 11:22:48;;;;;;;6.30;5.70;;;18.30;46.80;;;;;;5016139;28;20189;-65
2022/12/02 11:25:59;;;;;;;6.03;5.40;;;18.30;46.90;;;;;;5016159;28;20291;-66
2022/12/02 11:29:04;;;;;;;6.80;5.72;;;18.30;46.90;;;;;;5001962;28;20290;-66
2022/12/02 11:31:32;;;;;;;6.15;5.55;;;18.20;46.80;;;;;;4998583;28;20200;-66
2022/12/02 11:34:17;;;;;;;6.28;5.15;;;18.30;46.90;;;;;;5015993;28;20207;-66
2022/12/02 11:36:45;;;;;;;6.00;5.40;;;18.30;46.90;;;;;;5015123;28;20478;-66
2022/12/02 11:39:13;;;;;;;6.20;5.47;;;18.30;46.70;;;;;;5014713;28;20217;-66
2022/12/02 11:42:18;;;;;;;5.43;4.93;;;18.20;46.60;;;;;;5014539;28;20197;-66
2022/12/02 11:44:45;;;;;;;5.93;5.30;;;18.30;46.60;;;;;;5015636;28;20295;-66
2022/12/02 11:47:23;;;;;;;5.28;4.78;;;18.30;46.80;;;;;;5015569;28;20288;-66
2022/12/02 11:49:51;;;;;;;5.65;5.03;;;18.30;46.80;;;;;;5015029;28;20299;-66
2022/12/02 11:52:22;;;;;;;5.20;4.70;;;18.30;46.80;;;;;;4998156;28;20201;-66
2022/12/02 11:54:55;;;;;;;5.40;4.90;;;18.30;46.90;;;;;;5014616;28;20251;-66
2022/12/02 11:57:23;;;;;;;5.18;4.68;;;18.20;46.80;;;;;;5014251;28;20197;-66
2022/12/02 11:59:50;;;;;;;4.80;4.30;;;18.20;46.80;;;;;;5015571;28;20216;-66
2022/12/02 12:02:18;;;;;;;5.40;4.90;;;18.20;46.80;;;;;;5014405;28;20216;-66
2022/12/02 12:04:46;;;;;;;5.65;4.75;;;18.20;46.80;;;;;;5014064;28;20221;-66
2022/12/02 12:07:14;;;;;;;5.47;4.85;;;18.30;46.90;;;;;;5013990;28;20212;-66
2022/12/02 12:09:41;;;;;;;5.60;4.75;;;18.20;46.80;;;;;;5013981;28;20228;-66
2022/12/02 12:12:14;;;;;;;5.40;4.90;;;18.20;46.60;;;;;;5013985;28;20204;-66
2022/12/02 12:14:55;;;;;;;5.65;5.15;;;18.20;46.60;;;;;;5015058;28;20197;-66
2022/12/02 12:17:45;;;;;;;5.10;4.60;;;18.20;46.80;;;;;;5014082;28;20292;-66
2022/12/02 12:20:44;;;;;;;5.13;4.63;;;18.20;46.80;;;;;;5014075;28;20699;-66
2022/12/02 12:23:31;;;;;;;5.20;4.70;;;18.20;46.80;;;;;;5013028;28;20224;-66
2022/12/02 12:25:59;;;;;;;4.82;4.38;;;18.20;46.80;;;;;;5011306;28;20292;-66
2022/12/02 12:28:28;;;;;;;4.95;4.47;;;18.20;46.80;;;;;;5013671;28;20295;-66
2022/12/02 12:30:55;;;;;;;4.85;4.43;;;18.20;46.70;;;;;;5013648;28;20203;-66
2022/12/02 12:33:23;;;;;;;5.10;4.70;;;18.20;46.70;;;;;;5014548;28;20200;-66
2022/12/02 12:35:52;;;;;;;4.90;4.50;;;18.20;46.90;;;;;;5013913;28;20558;-66
2022/12/02 12:38:19;;;;;;;4.75;4.35;;;18.20;46.80;;;;;;5014801;28;20189;-66
2022/12/02 12:40:46;;;;;;;4.88;4.40;;;18.20;47.40;;;;;;5013689;28;20212;-66
2022/12/02 12:43:14;;;;;;;5.00;4.40;;;18.20;46.90;;;;;;5013273;28;20287;-66
2022/12/02 12:45:42;;;;;;;4.78;4.38;;;18.20;46.70;;;;;;5013583;28;20266;-66
2022/12/02 12:48:09;;;;;;;5.55;4.82;;;18.20;46.70;;;;;;5013792;28;20204;-66
2022/12/02 12:50:37;;;;;;;5.10;4.60;;;18.20;46.70;;;;;;5013426;28;20774;-66
2022/12/02 12:53:04;;;;;;;4.28;3.88;;;18.20;46.70;;;;;;5013529;28;20223;-66
2022/12/02 12:55:31;;;;;;;4.78;4.20;;;18.20;46.70;;;;;;5014476;28;20200;-66